createdAt,value
2023-04-02T00:00:59.572Z,1.74
2023-04-02T00:01:59.668Z,1.65
2023-04-02T00:02:59.734Z,1.60
2023-04-02T00:03:59.843Z,1.65
2023-04-02T00:04:59.775Z,1.70
2023-04-02T00:05:59.836Z,1.51
2023-04-02T00:06:59.887Z,1.63
2023-04-02T00:07:59.922Z,1.45
2023-04-02T00:08:59.977Z,1.47
2023-04-02T00:10:00.074Z,1.35
2023-04-02T00:11:00.170Z,1.41
2023-04-02T00:12:00.152Z,1.45
2023-04-02T00:13:00.229Z,1.53
2023-04-02T00:14:00.275Z,1.53
2023-04-02T00:15:00.309Z,1.69
2023-04-02T00:16:00.402Z,1.67
2023-04-02T00:17:00.407Z,1.66
2023-04-02T00:18:00.503Z,1.73
2023-04-02T00:19:00.534Z,1.74
2023-04-02T00:20:00.556Z,1.72
2023-04-02T00:21:00.604Z,1.69
2023-04-02T00:22:00.677Z,1.67
2023-04-02T00:23:00.724Z,1.70
2023-04-02T00:24:00.774Z,1.71
2023-04-02T00:25:00.815Z,1.65
2023-04-02T00:26:00.852Z,1.65
2023-04-02T00:27:00.887Z,1.67
2023-04-02T00:28:00.953Z,1.67
2023-04-02T00:29:01.004Z,1.61
2023-04-02T00:30:01.046Z,1.65
2023-04-02T00:31:01.072Z,1.71
2023-04-02T00:32:01.182Z,1.65
2023-04-02T00:33:01.199Z,1.67
2023-04-02T00:34:01.223Z,1.64
2023-04-02T00:35:01.274Z,1.51
2023-04-02T00:36:01.337Z,1.66
2023-04-02T00:37:01.389Z,1.71
2023-04-02T00:38:01.414Z,1.72
2023-04-02T00:39:01.448Z,1.77
2023-04-02T00:40:01.518Z,1.81
2023-04-02T00:41:01.539Z,1.84
2023-04-02T00:42:01.582Z,1.79
2023-04-02T00:43:01.638Z,1.83
2023-04-02T00:44:01.684Z,1.93
2023-04-02T00:45:01.723Z,1.95
2023-04-02T00:46:01.779Z,1.98
2023-04-02T00:47:01.810Z,2.05
2023-04-02T00:48:01.871Z,2.05
2023-04-02T00:49:01.894Z,2.09
2023-04-02T00:50:01.928Z,2.17
2023-04-02T00:51:01.954Z,2.13
2023-04-02T00:52:02.040Z,2.14
2023-04-02T00:53:02.030Z,2.16
2023-04-02T00:54:02.070Z,2.15
2023-04-02T00:55:02.134Z,2.16
2023-04-02T00:56:02.197Z,2.19
2023-04-02T00:57:02.258Z,2.17
2023-04-02T00:58:02.273Z,2.14
2023-04-02T00:59:02.319Z,2.17
2023-04-02T01:00:02.341Z,2.20
2023-04-02T01:01:02.461Z,2.09
2023-04-02T01:02:02.409Z,2.08
2023-04-02T01:03:02.572Z,1.99
2023-04-02T01:04:02.532Z,2.05
2023-04-02T01:05:02.715Z,2.01
2023-04-02T01:06:02.627Z,1.92
2023-04-02T01:07:02.663Z,1.91
2023-04-02T01:08:02.718Z,1.94
2023-04-02T01:09:02.740Z,1.93
2023-04-02T01:10:02.795Z,1.97
2023-04-02T01:11:02.819Z,1.97
2023-04-02T01:12:02.879Z,1.97
2023-04-02T01:13:02.908Z,1.99
2023-04-02T01:14:02.968Z,2.00
2023-04-02T01:15:02.999Z,2.08
2023-04-02T01:16:03.056Z,2.09
2023-04-02T01:17:03.066Z,2.14
2023-04-02T01:18:03.180Z,2.06
2023-04-02T01:19:03.177Z,2.11
2023-04-02T01:20:03.230Z,2.13
2023-04-02T01:21:03.273Z,2.11
2023-04-02T01:22:03.309Z,2.10
2023-04-02T01:23:03.368Z,2.13
2023-04-02T01:24:03.406Z,2.11
2023-04-02T01:25:03.424Z,2.06
2023-04-02T01:26:03.489Z,2.05
2023-04-02T01:27:03.570Z,2.11
2023-04-02T01:28:03.545Z,2.09
2023-04-02T01:29:03.571Z,2.06
2023-04-02T01:30:03.633Z,2.09
2023-04-02T01:31:03.652Z,2.05
2023-04-02T01:32:03.687Z,2.06
2023-04-02T01:33:03.743Z,2.02
2023-04-02T01:34:03.714Z,1.97
2023-04-02T01:35:03.755Z,1.97
2023-04-02T01:36:03.794Z,1.92
2023-04-02T01:37:03.806Z,1.98
2023-04-02T01:38:03.837Z,1.95
2023-04-02T01:39:03.860Z,1.92
2023-04-02T01:40:03.884Z,1.92
2023-04-02T01:41:03.924Z,1.94
2023-04-02T01:42:03.966Z,2.04
2023-04-02T01:43:04.012Z,2.01
2023-04-02T01:44:04.056Z,2.04
2023-04-02T01:45:04.068Z,2.02
2023-04-02T01:46:04.172Z,2.04
2023-04-02T01:47:04.122Z,2.06
2023-04-02T01:48:04.183Z,2.01
2023-04-02T01:49:04.172Z,2.01
2023-04-02T01:50:04.200Z,2.08
2023-04-02T01:51:04.224Z,2.22
2023-04-02T01:52:04.253Z,2.29
2023-04-02T01:53:04.265Z,2.29
2023-04-02T01:54:04.282Z,2.40
2023-04-02T01:55:04.334Z,2.34
2023-04-02T01:56:04.353Z,2.35
2023-04-02T01:57:04.423Z,2.40
2023-04-02T01:58:04.419Z,2.35
2023-04-02T01:59:04.433Z,2.33
2023-04-02T02:00:04.469Z,2.26
2023-04-02T02:01:04.549Z,2.32
2023-04-02T02:02:04.537Z,2.30
2023-04-02T02:03:04.682Z,2.26
2023-04-02T02:04:04.611Z,2.21
2023-04-02T02:05:04.630Z,2.21
2023-04-02T02:06:04.672Z,2.19
2023-04-02T02:07:04.688Z,2.15
2023-04-02T02:08:04.710Z,2.21
2023-04-02T02:09:04.768Z,2.20
2023-04-02T02:10:04.877Z,2.19
2023-04-02T02:11:04.807Z,2.10
2023-04-02T02:12:04.854Z,2.07
2023-04-02T02:13:04.888Z,2.01
2023-04-02T02:14:04.919Z,1.98
2023-04-02T02:15:04.924Z,1.99
2023-04-02T02:16:05.012Z,1.97
2023-04-02T02:17:04.982Z,2.01
2023-04-02T02:18:04.986Z,2.01
2023-04-02T02:19:05.019Z,2.04
2023-04-02T02:20:05.032Z,2.03
2023-04-02T02:21:05.056Z,2.00
2023-04-02T02:22:05.072Z,2.01
2023-04-02T02:23:05.075Z,1.94
2023-04-02T02:24:05.078Z,1.87
2023-04-02T02:25:05.080Z,1.82
2023-04-02T02:26:05.114Z,1.77
2023-04-02T02:27:05.128Z,1.83
2023-04-02T02:28:05.156Z,1.85
2023-04-02T02:29:05.166Z,1.91
2023-04-02T02:30:05.212Z,2.01
2023-04-02T02:31:05.224Z,2.01
2023-04-02T02:32:05.280Z,2.03
2023-04-02T02:33:05.297Z,1.99
2023-04-02T02:34:05.312Z,1.98
2023-04-02T02:35:05.329Z,2.01
2023-04-02T02:36:05.364Z,2.01
2023-04-02T02:37:05.373Z,2.07
2023-04-02T02:38:05.385Z,2.15
2023-04-02T02:39:05.411Z,2.07
2023-04-02T02:40:05.439Z,2.05
2023-04-02T02:41:05.467Z,2.07
2023-04-02T02:42:05.465Z,2.10
2023-04-02T02:43:05.507Z,2.11
2023-04-02T02:44:05.508Z,2.17
2023-04-02T02:45:05.520Z,2.14
2023-04-02T02:46:05.556Z,2.20
2023-04-02T02:47:05.521Z,2.22
2023-04-02T02:48:05.576Z,2.28
2023-04-02T02:49:05.530Z,2.27
2023-04-02T02:50:05.536Z,2.30
2023-04-02T02:51:05.596Z,2.33
2023-04-02T02:52:05.625Z,2.37
2023-04-02T02:53:05.650Z,2.30
2023-04-02T02:54:05.660Z,2.35
2023-04-02T02:55:05.709Z,2.32
2023-04-02T02:56:05.717Z,2.31
2023-04-02T02:57:05.784Z,2.41
2023-04-02T02:58:05.742Z,2.42
2023-04-02T02:59:05.771Z,2.38
2023-04-02T03:00:05.818Z,2.37
2023-04-02T03:01:05.849Z,2.34
2023-04-02T03:02:05.856Z,2.30
2023-04-02T03:03:06.028Z,2.27
2023-04-02T03:04:05.992Z,2.20
2023-04-02T03:05:05.924Z,2.18
2023-04-02T03:06:05.927Z,2.15
2023-04-02T03:07:05.945Z,2.13
2023-04-02T03:08:05.967Z,2.07
2023-04-02T03:09:05.992Z,1.98
2023-04-02T03:10:06.013Z,2.03
2023-04-02T03:11:06.012Z,2.02
2023-04-02T03:12:06.025Z,2.00
2023-04-02T03:13:06.027Z,1.99
2023-04-02T03:14:06.039Z,2.01
2023-04-02T03:15:06.080Z,2.03
2023-04-02T03:16:06.190Z,2.05
2023-04-02T03:17:06.121Z,2.05
2023-04-02T03:18:06.210Z,2.07
2023-04-02T03:19:06.164Z,2.08
2023-04-02T03:20:06.180Z,2.09
2023-04-02T03:21:06.220Z,2.14
2023-04-02T03:22:06.234Z,2.12
2023-04-02T03:23:06.265Z,2.22
2023-04-02T03:24:06.323Z,2.18
2023-04-02T03:25:06.301Z,2.12
2023-04-02T03:26:06.310Z,2.10
2023-04-02T03:27:06.446Z,2.10
2023-04-02T03:28:06.355Z,2.15
2023-04-02T03:29:06.377Z,2.13
2023-04-02T03:30:06.380Z,2.14
2023-04-02T03:31:06.474Z,2.14
2023-04-02T03:32:06.422Z,2.14
2023-04-02T03:33:06.461Z,2.20
2023-04-02T03:34:06.450Z,2.17
2023-04-02T03:35:06.487Z,2.17
2023-04-02T03:36:06.535Z,2.16
2023-04-02T03:37:06.548Z,2.12
2023-04-02T03:38:06.610Z,2.13
2023-04-02T03:39:06.614Z,2.11
2023-04-02T03:40:06.610Z,2.03
2023-04-02T03:41:06.668Z,2.01
2023-04-02T03:42:06.675Z,1.92
2023-04-02T03:43:06.697Z,1.96
2023-04-02T03:44:06.726Z,1.93
2023-04-02T03:45:06.747Z,1.86
2023-04-02T03:46:06.813Z,1.78
2023-04-02T03:47:06.831Z,1.77
2023-04-02T03:48:06.898Z,1.75
2023-04-02T03:49:06.922Z,1.63
2023-04-02T03:50:06.961Z,1.71
2023-04-02T03:51:06.948Z,1.77
2023-04-02T03:52:07.005Z,1.81
2023-04-02T03:53:07.033Z,1.87
2023-04-02T03:54:07.050Z,1.89
2023-04-02T03:55:07.070Z,1.96
2023-04-02T03:56:07.086Z,2.04
2023-04-02T03:57:07.168Z,2.07
2023-04-02T03:58:07.127Z,2.14
2023-04-02T03:59:07.146Z,2.22
2023-04-02T04:00:07.180Z,2.19
2023-04-02T04:01:07.175Z,2.23
2023-04-02T04:02:07.225Z,2.24
2023-04-02T04:03:07.227Z,2.22
2023-04-02T04:04:07.226Z,2.30
2023-04-02T04:05:07.210Z,2.31
2023-04-02T04:06:07.224Z,2.31
2023-04-02T04:07:07.307Z,2.34
2023-04-02T04:08:07.281Z,2.37
2023-04-02T04:09:07.280Z,2.46
2023-04-02T04:10:07.306Z,2.41
2023-04-02T04:11:07.351Z,2.37
2023-04-02T04:12:07.344Z,2.37
2023-04-02T04:13:07.349Z,2.35
2023-04-02T04:14:07.384Z,2.32
2023-04-02T04:15:07.383Z,2.31
2023-04-02T04:16:07.417Z,2.31
2023-04-02T04:17:07.418Z,2.32
2023-04-02T04:18:07.423Z,2.25
2023-04-02T04:19:07.398Z,2.31
2023-04-02T04:20:07.452Z,2.30
2023-04-02T04:21:07.403Z,2.26
2023-04-02T04:22:07.410Z,2.37
2023-04-02T04:23:07.420Z,2.35
2023-04-02T04:24:07.433Z,2.27
2023-04-02T04:25:07.429Z,2.22
2023-04-02T04:26:07.433Z,2.19
2023-04-02T04:27:07.433Z,2.14
2023-04-02T04:28:07.463Z,2.10
2023-04-02T04:29:07.452Z,2.01
2023-04-02T04:30:07.470Z,1.95
2023-04-02T04:31:07.451Z,1.92
2023-04-02T04:32:07.503Z,1.80
2023-04-02T04:33:07.487Z,1.84
2023-04-02T04:34:07.464Z,1.85
2023-04-02T04:35:07.482Z,1.88
2023-04-02T04:36:07.499Z,1.89
2023-04-02T04:37:07.498Z,1.87
2023-04-02T04:38:07.466Z,1.87
2023-04-02T04:39:07.508Z,1.95
2023-04-02T04:40:07.502Z,1.94
2023-04-02T04:41:07.500Z,1.94
2023-04-02T04:42:07.519Z,2.00
2023-04-02T04:43:07.532Z,2.05
2023-04-02T04:44:07.527Z,2.11
2023-04-02T04:45:07.514Z,2.24
2023-04-02T04:46:07.539Z,2.22
2023-04-02T04:47:07.527Z,2.25
2023-04-02T04:48:07.536Z,2.27
2023-04-02T04:49:07.533Z,2.27
2023-04-02T04:50:07.568Z,2.30
2023-04-02T04:51:07.585Z,2.23
2023-04-02T04:52:07.578Z,2.21
2023-04-02T04:53:07.579Z,2.19
2023-04-02T04:54:07.584Z,2.12
2023-04-02T04:55:07.593Z,2.10
2023-04-02T04:56:18.917Z,2.08
2023-04-02T04:57:08.649Z,2.08
2023-04-02T04:58:07.569Z,2.10
2023-04-02T04:59:07.580Z,2.12
2023-04-02T05:00:07.574Z,2.16
2023-04-02T05:01:07.619Z,2.19
2023-04-02T05:02:07.582Z,2.09
2023-04-02T05:03:07.577Z,2.08
2023-04-02T05:04:07.545Z,2.04
2023-04-02T05:05:07.539Z,2.08
2023-04-02T05:06:07.509Z,2.05
2023-04-02T05:07:07.508Z,2.12
2023-04-02T05:08:07.517Z,2.05
2023-04-02T05:09:07.493Z,2.09
2023-04-02T05:10:07.496Z,2.01
2023-04-02T05:11:07.472Z,2.07
2023-04-02T05:12:07.484Z,2.10
2023-04-02T05:13:07.512Z,2.10
2023-04-02T05:14:07.470Z,2.10
2023-04-02T05:15:07.477Z,2.05
2023-04-02T05:16:07.482Z,1.99
2023-04-02T05:17:07.452Z,1.99
2023-04-02T05:18:07.532Z,2.06
2023-04-02T05:19:07.431Z,2.05
2023-04-02T05:20:07.433Z,2.06
2023-04-02T05:21:07.410Z,2.08
2023-04-02T05:22:07.412Z,2.13
2023-04-02T05:23:07.416Z,2.06
2023-04-02T05:24:07.388Z,2.07
2023-04-02T05:25:07.387Z,2.05
2023-04-02T05:26:07.382Z,2.07
2023-04-02T05:27:07.368Z,2.07
2023-04-02T05:28:07.395Z,2.05
2023-04-02T05:29:07.360Z,2.07
2023-04-02T05:30:07.362Z,1.98
2023-04-02T05:31:07.419Z,1.99
2023-04-02T05:32:07.376Z,1.89
2023-04-02T05:33:07.400Z,1.90
2023-04-02T05:34:07.402Z,1.84
2023-04-02T05:35:07.435Z,1.84
2023-04-02T05:36:07.499Z,1.88
2023-04-02T05:37:07.466Z,1.91
2023-04-02T05:38:07.476Z,1.93
2023-04-02T05:39:07.469Z,1.93
2023-04-02T05:40:07.469Z,1.93
2023-04-02T05:41:07.519Z,1.85
2023-04-02T05:42:07.526Z,1.92
2023-04-02T05:43:07.588Z,1.91
2023-04-02T05:44:07.592Z,1.88
2023-04-02T05:45:07.627Z,1.89
2023-04-02T05:46:07.689Z,1.88
2023-04-02T05:47:07.723Z,1.89
2023-04-02T05:48:07.803Z,1.89
2023-04-02T05:49:07.803Z,1.97
2023-04-02T05:50:07.869Z,2.02
2023-04-02T05:51:07.881Z,2.01
2023-04-02T05:52:07.991Z,1.99
2023-04-02T05:53:08.049Z,2.04
2023-04-02T05:54:08.077Z,2.07
2023-04-02T05:55:08.129Z,2.06
2023-04-02T05:56:08.168Z,2.03
2023-04-02T05:57:08.279Z,2.03
2023-04-02T05:59:09.268Z,2.01
2023-04-02T06:00:08.322Z,2.01
2023-04-02T06:01:08.267Z,2.02
2023-04-02T06:02:08.306Z,2.03
2023-04-02T06:03:08.422Z,2.07
2023-04-02T06:04:08.353Z,2.07
2023-04-02T06:05:08.222Z,2.11
2023-04-02T06:06:08.220Z,2.10
2023-04-02T06:07:08.234Z,2.04
2023-04-02T06:08:08.278Z,2.05
2023-04-02T06:09:08.321Z,2.04
2023-04-02T06:10:08.357Z,2.09
2023-04-02T06:11:08.388Z,2.10
2023-04-02T06:12:08.401Z,2.14
2023-04-02T06:13:08.419Z,2.18
2023-04-02T06:14:08.400Z,2.35
2023-04-02T06:15:08.399Z,2.41
2023-04-02T06:16:08.462Z,2.50
2023-04-02T06:17:08.494Z,2.53
2023-04-02T06:18:08.634Z,2.47
2023-04-02T06:19:08.624Z,2.68
2023-04-02T06:20:08.663Z,2.55
2023-04-02T06:21:08.712Z,2.74
2023-04-02T06:22:08.764Z,2.60
2023-04-02T06:23:08.816Z,2.66
2023-04-02T06:24:08.836Z,2.55
2023-04-02T06:25:08.890Z,2.87
2023-04-02T06:26:08.890Z,3.05
2023-04-02T06:27:08.931Z,2.94
2023-04-02T06:28:08.935Z,2.77
2023-04-02T06:29:08.939Z,2.63
2023-04-02T06:30:08.933Z,2.74
2023-04-02T06:31:09.044Z,2.74
2023-04-02T06:32:09.040Z,2.86
2023-04-02T06:33:09.139Z,3.04
2023-04-02T06:34:09.092Z,3.03
2023-04-02T06:35:09.138Z,3.26
2023-04-02T06:36:09.155Z,3.33
2023-04-02T06:37:09.126Z,3.48
2023-04-02T06:38:09.216Z,3.75
2023-04-02T06:39:09.255Z,3.87
2023-04-02T06:40:09.292Z,4.30
2023-04-02T06:41:09.320Z,4.71
2023-04-02T06:42:09.356Z,4.93
2023-04-02T06:43:09.402Z,4.74
2023-04-02T06:44:09.421Z,4.33
2023-04-02T06:45:09.412Z,4.18
2023-04-02T06:46:09.474Z,4.18
2023-04-02T06:47:09.452Z,3.93
2023-04-02T06:48:09.498Z,3.65
2023-04-02T06:49:09.517Z,3.38
2023-04-02T06:50:09.588Z,3.14
2023-04-02T06:51:09.591Z,2.99
2023-04-02T06:52:09.614Z,2.99
2023-04-02T06:53:09.680Z,3.42
2023-04-02T06:54:09.694Z,3.79
2023-04-02T06:55:09.736Z,3.85
2023-04-02T06:56:09.739Z,4.35
2023-04-02T06:57:09.823Z,4.76
2023-04-02T06:58:09.813Z,5.45
2023-04-02T06:59:09.861Z,5.97
2023-04-02T07:00:09.848Z,5.38
2023-04-02T07:01:09.883Z,5.23
2023-04-02T07:02:09.853Z,5.13
2023-04-02T07:03:09.891Z,4.85
2023-04-02T07:04:09.873Z,4.68
2023-04-02T07:05:10.003Z,4.55
2023-04-02T07:06:09.925Z,4.43
2023-04-02T07:07:09.915Z,4.30
2023-04-02T07:08:09.928Z,4.17
2023-04-02T07:09:09.946Z,4.14
2023-04-02T07:10:09.947Z,4.05
2023-04-02T07:11:09.996Z,3.81
2023-04-02T07:12:10.021Z,3.67
2023-04-02T07:13:10.041Z,3.40
2023-04-02T07:14:10.027Z,3.19
2023-04-02T07:15:10.053Z,2.95
2023-04-02T07:16:10.108Z,2.90
2023-04-02T07:17:10.113Z,2.77
2023-04-02T07:18:10.217Z,2.57
2023-04-02T07:19:10.189Z,2.30
2023-04-02T07:20:10.209Z,2.12
2023-04-02T07:21:10.206Z,1.95
2023-04-02T07:22:10.243Z,1.98
2023-04-02T07:23:10.259Z,2.06
2023-04-02T07:24:10.343Z,1.94
2023-04-02T07:25:10.371Z,1.84
2023-04-02T07:26:10.432Z,1.69
2023-04-02T07:27:10.483Z,1.61
2023-04-02T07:28:10.510Z,1.58
2023-04-02T07:29:10.507Z,1.52
2023-04-02T07:30:10.500Z,1.46
2023-04-02T07:31:10.522Z,1.46
2023-04-02T07:32:10.535Z,1.44
2023-04-02T07:33:10.588Z,1.41
2023-04-02T07:34:10.519Z,1.35
2023-04-02T07:35:10.534Z,1.42
2023-04-02T07:36:10.588Z,1.56
2023-04-02T07:37:10.587Z,1.71
2023-04-02T07:38:10.620Z,1.82
2023-04-02T07:39:10.637Z,1.81
2023-04-02T07:40:10.664Z,1.93
2023-04-02T07:41:10.660Z,2.00
2023-04-02T07:42:10.655Z,2.03
2023-04-02T07:43:10.728Z,2.16
2023-04-02T07:44:10.776Z,2.13
2023-04-02T07:45:10.818Z,2.26
2023-04-02T07:46:10.893Z,2.23
2023-04-02T07:47:10.881Z,2.37
2023-04-02T07:48:10.887Z,2.40
2023-04-02T07:49:10.908Z,2.40
2023-04-02T07:50:10.938Z,2.35
2023-04-02T07:51:10.998Z,2.36
2023-04-02T07:52:11.020Z,2.50
2023-04-02T07:53:11.044Z,2.46
2023-04-02T07:54:11.045Z,2.62
2023-04-02T07:55:11.091Z,2.59
2023-04-02T07:56:11.111Z,2.71
2023-04-02T07:57:11.179Z,2.83
2023-04-02T07:58:11.235Z,2.96
2023-04-02T07:59:11.248Z,2.65
2023-04-02T08:00:11.292Z,2.93
2023-04-02T08:01:11.311Z,2.50
2023-04-02T08:02:11.363Z,2.35
2023-04-02T08:03:11.521Z,2.15
2023-04-02T08:04:11.413Z,2.09
2023-04-02T08:05:11.405Z,2.20
2023-04-02T08:06:11.401Z,1.96
2023-04-02T08:07:11.434Z,1.82
2023-04-02T08:08:11.467Z,1.53
2023-04-02T08:09:11.490Z,1.44
2023-04-02T08:10:11.504Z,1.43
2023-04-02T08:11:11.536Z,1.33
2023-04-02T08:12:11.567Z,1.13
2023-04-02T08:13:11.596Z,1.00
2023-04-02T08:14:11.653Z,0.76
2023-04-02T08:15:11.659Z,0.90
2023-04-02T08:16:11.837Z,0.78
2023-04-02T08:17:11.776Z,0.83
2023-04-02T08:18:11.836Z,0.82
2023-04-02T08:19:11.878Z,0.84
2023-04-02T08:20:11.948Z,0.77
2023-04-02T08:21:12.439Z,0.64
2023-04-02T08:22:12.038Z,0.80
2023-04-02T08:23:12.088Z,0.70
2023-04-02T08:24:12.100Z,0.65
2023-04-02T08:25:12.086Z,0.52
2023-04-02T08:26:12.121Z,0.55
2023-04-02T08:27:12.091Z,0.50
2023-04-02T08:28:12.091Z,0.51
2023-04-02T08:29:12.107Z,0.50
2023-04-02T08:30:12.120Z,0.52
2023-04-02T08:31:12.182Z,0.49
2023-04-02T08:32:12.183Z,0.60
2023-04-02T08:33:12.271Z,0.58
2023-04-02T08:34:12.259Z,0.49
2023-04-02T08:35:12.312Z,0.50
2023-04-02T08:36:12.380Z,0.48
2023-04-02T08:37:12.408Z,0.49
2023-04-02T08:38:12.404Z,0.50
2023-04-02T08:39:12.415Z,0.51
2023-04-02T08:40:12.411Z,0.52
2023-04-02T08:41:12.435Z,0.55
2023-04-02T08:42:12.457Z,0.54
2023-04-02T08:43:12.474Z,0.50
2023-04-02T08:44:12.513Z,0.51
2023-04-02T08:45:24.401Z,0.50
2023-04-02T08:46:13.577Z,0.46
2023-04-02T08:47:12.528Z,0.46
2023-04-02T08:48:12.504Z,0.45
2023-04-02T08:49:12.512Z,0.43
2023-04-02T08:50:12.500Z,0.42
2023-04-02T08:51:12.488Z,0.46
2023-04-02T08:52:12.491Z,0.51
2023-04-02T08:53:12.515Z,0.54
2023-04-02T08:54:12.472Z,0.50
2023-04-02T08:55:12.532Z,0.57
2023-04-02T08:56:12.464Z,0.57
2023-04-02T08:57:12.506Z,0.59
2023-04-02T08:58:12.491Z,0.68
2023-04-02T08:59:12.540Z,0.60
2023-04-02T09:00:12.586Z,0.72
2023-04-02T09:01:12.646Z,0.76
2023-04-02T09:02:12.704Z,0.97
2023-04-02T09:03:12.766Z,0.90
2023-04-02T09:04:12.851Z,1.02
2023-04-02T09:05:12.889Z,1.37
2023-04-02T09:06:14.727Z,1.14
2023-04-02T09:07:12.914Z,1.02
2023-04-02T09:08:12.898Z,1.08
2023-04-02T09:09:12.897Z,1.05
2023-04-02T09:10:12.893Z,1.00
2023-04-02T09:11:12.889Z,1.08
2023-04-02T09:12:12.871Z,1.30
2023-04-02T09:13:12.880Z,1.24
2023-04-02T09:14:12.865Z,1.10
2023-04-02T09:15:12.856Z,1.29
2023-04-02T09:16:12.887Z,1.24
2023-04-02T09:17:12.852Z,1.16
2023-04-02T09:18:12.916Z,1.07
2023-04-02T09:19:12.832Z,0.84
2023-04-02T09:20:12.813Z,0.94
2023-04-02T09:21:12.818Z,0.91
2023-04-02T09:22:12.798Z,0.87
2023-04-02T09:23:12.794Z,0.95
2023-04-02T09:24:12.792Z,0.85
2023-04-02T09:25:12.778Z,0.87
2023-04-02T09:26:12.784Z,0.98
2023-04-02T09:27:12.764Z,1.02
2023-04-02T09:28:12.752Z,1.10
2023-04-02T09:29:12.779Z,0.94
2023-04-02T09:30:12.763Z,1.23
2023-04-02T09:31:12.762Z,1.18
2023-04-02T09:32:12.743Z,1.18
2023-04-02T09:33:12.766Z,1.22
2023-04-02T09:34:12.745Z,1.34
2023-04-02T09:35:24.579Z,1.29
2023-04-02T09:36:15.679Z,1.20
2023-04-02T09:37:12.694Z,1.33
2023-04-02T09:38:12.733Z,1.41
2023-04-02T09:39:12.744Z,1.48
2023-04-02T09:40:12.681Z,1.31
2023-04-02T09:41:12.677Z,1.58
2023-04-02T09:42:12.678Z,1.38
2023-04-02T09:43:12.726Z,1.62
2023-04-02T09:44:12.681Z,1.47
2023-04-02T09:45:12.671Z,1.80
2023-04-02T09:46:12.681Z,1.55
2023-04-02T09:47:12.640Z,1.76
2023-04-02T09:48:12.663Z,1.77
2023-04-02T09:49:12.625Z,1.78
2023-04-02T09:50:12.626Z,1.92
2023-04-02T09:51:12.658Z,2.10
2023-04-02T09:52:12.623Z,2.38
2023-04-02T09:53:12.628Z,2.15
2023-04-02T09:54:12.714Z,2.45
2023-04-02T09:55:12.606Z,2.35
2023-04-02T09:56:12.580Z,2.43
2023-04-02T09:57:12.590Z,3.10
2023-04-02T09:58:12.575Z,2.72
2023-04-02T09:59:12.577Z,2.74
2023-04-02T10:00:21.821Z,3.18
2023-04-02T10:01:13.591Z,3.19
2023-04-02T10:02:12.533Z,3.25
2023-04-02T10:03:12.546Z,3.37
2023-04-02T10:04:12.562Z,3.64
2023-04-02T10:05:12.542Z,4.23
2023-04-02T10:06:12.510Z,4.36
2023-04-02T10:07:12.512Z,4.18
2023-04-02T10:08:12.503Z,4.49
2023-04-02T10:09:12.527Z,4.43
2023-04-02T10:10:12.531Z,4.54
2023-04-02T10:11:12.492Z,4.60
2023-04-02T10:12:12.542Z,4.78
2023-04-02T10:13:12.592Z,4.84
2023-04-02T10:14:12.653Z,4.68
2023-04-02T10:15:12.693Z,5.16
2023-04-02T10:16:12.793Z,5.16
2023-04-02T10:17:12.883Z,4.87
2023-04-02T10:18:12.884Z,5.09
2023-04-02T10:19:12.963Z,5.17
2023-04-02T10:20:13.067Z,4.85
2023-04-02T10:21:13.072Z,4.95
2023-04-02T10:22:13.149Z,4.97
2023-04-02T10:23:13.217Z,4.99
2023-04-02T10:24:13.305Z,5.17
2023-04-02T10:25:13.333Z,5.24
2023-04-02T10:26:13.393Z,5.27
2023-04-02T10:27:13.445Z,5.53
2023-04-02T10:28:13.521Z,5.58
2023-04-02T10:29:13.565Z,5.33
2023-04-02T10:30:13.619Z,5.48
2023-04-02T10:31:13.690Z,5.44
2023-04-02T10:32:13.740Z,5.32
2023-04-02T10:33:13.809Z,5.41
2023-04-02T10:34:13.878Z,4.52
2023-04-02T10:35:13.937Z,4.51
2023-04-02T10:36:14.015Z,4.88
2023-04-02T10:37:14.029Z,4.49
2023-04-02T10:38:14.092Z,4.61
2023-04-02T10:39:14.128Z,4.50
2023-04-02T10:40:14.189Z,4.35
2023-04-02T10:41:14.218Z,3.66
2023-04-02T10:42:14.240Z,3.83
2023-04-02T10:43:14.291Z,4.08
2023-04-02T10:44:20.189Z,3.56
2023-04-02T10:45:15.328Z,3.56
2023-04-02T10:46:14.397Z,3.57
2023-04-02T10:47:14.306Z,3.60
2023-04-02T10:48:14.330Z,3.64
2023-04-02T10:49:14.296Z,3.38
2023-04-02T10:50:14.311Z,2.60
2023-04-02T10:51:14.294Z,2.80
2023-04-02T10:52:14.280Z,2.94
2023-04-02T10:53:14.280Z,2.91
2023-04-02T10:54:14.276Z,2.81
2023-04-02T10:55:14.253Z,3.14
2023-04-02T10:56:14.277Z,2.98
2023-04-02T10:57:14.444Z,3.35
2023-04-02T10:58:14.351Z,2.94
2023-04-02T10:59:14.431Z,2.96
2023-04-02T11:00:14.470Z,3.57
2023-04-02T11:01:14.564Z,3.77
2023-04-02T11:02:14.594Z,3.37
2023-04-02T11:03:14.732Z,3.56
2023-04-02T11:04:14.713Z,3.89
2023-04-02T11:05:14.765Z,4.03
2023-04-02T11:06:14.806Z,4.60
2023-04-02T11:07:15.146Z,4.64
2023-04-02T11:08:14.865Z,4.70
2023-04-02T11:09:14.915Z,4.60
2023-04-02T11:10:14.898Z,4.95
2023-04-02T11:11:14.942Z,4.81
2023-04-02T11:12:14.944Z,5.33
2023-04-02T11:13:14.938Z,5.15
2023-04-02T11:14:14.963Z,5.26
2023-04-02T11:15:14.950Z,5.09
2023-04-02T11:16:14.983Z,5.09
2023-04-02T11:17:14.955Z,5.19
2023-04-02T11:18:14.948Z,5.28
2023-04-02T11:19:14.937Z,5.27
2023-04-02T11:20:14.945Z,5.25
2023-04-02T11:21:14.955Z,5.31
2023-04-02T11:22:14.950Z,4.98
2023-04-02T11:23:14.954Z,5.27
2023-04-02T11:24:14.956Z,5.12
2023-04-02T11:25:14.957Z,5.13
2023-04-02T11:26:14.958Z,5.18
2023-04-02T11:27:14.966Z,5.14
2023-04-02T11:28:14.950Z,5.16
2023-04-02T11:29:14.987Z,4.55
2023-04-02T11:30:14.980Z,4.94
2023-04-02T11:31:15.019Z,4.46
2023-04-02T11:32:14.986Z,4.73
2023-04-02T11:33:18.647Z,4.45
2023-04-02T11:34:15.984Z,4.11
2023-04-02T11:35:14.973Z,3.58
2023-04-02T11:36:14.982Z,4.06
2023-04-02T11:37:14.972Z,3.96
2023-04-02T11:38:14.944Z,4.01
2023-04-02T11:39:17.701Z,3.03
2023-04-02T11:40:14.965Z,3.85
2023-04-02T11:41:14.944Z,3.64
2023-04-02T11:42:14.935Z,3.33
2023-04-02T11:43:14.919Z,3.03
2023-04-02T11:44:14.947Z,2.86
2023-04-02T11:45:14.919Z,3.10
2023-04-02T11:46:14.942Z,2.93
2023-04-02T11:47:14.903Z,2.78
2023-04-02T11:48:14.888Z,1.95
2023-04-02T11:49:14.906Z,2.03
2023-04-02T11:50:14.874Z,1.77
2023-04-02T11:51:14.885Z,1.53
2023-04-02T11:52:14.863Z,1.73
2023-04-02T11:53:14.861Z,1.85
2023-04-02T11:54:14.854Z,1.60
2023-04-02T11:55:14.850Z,1.58
2023-04-02T11:56:14.832Z,1.56
2023-04-02T11:57:14.878Z,1.62
2023-04-02T11:58:14.839Z,1.67
2023-04-02T11:59:14.812Z,1.73
2023-04-02T12:00:16.213Z,1.99
2023-04-02T12:01:14.958Z,2.00
2023-04-02T12:02:14.838Z,2.04
2023-04-02T12:03:14.852Z,2.04
2023-04-02T12:04:14.796Z,2.16
2023-04-02T12:05:14.849Z,2.78
2023-04-02T12:06:14.761Z,2.71
2023-04-02T12:07:14.767Z,3.20
2023-04-02T12:08:14.748Z,3.59
2023-04-02T12:09:14.750Z,4.20
2023-04-02T12:10:14.734Z,4.62
2023-04-02T12:11:14.741Z,4.72
2023-04-02T12:12:14.767Z,4.59
2023-04-02T12:13:14.720Z,4.41
2023-04-02T12:14:14.714Z,4.31
2023-04-02T12:15:14.696Z,4.13
2023-04-02T12:16:14.711Z,4.31
2023-04-02T12:17:14.758Z,4.03
2023-04-02T12:18:14.700Z,4.09
2023-04-02T12:19:14.679Z,4.05
2023-04-02T12:20:14.671Z,4.01
2023-04-02T12:21:14.669Z,3.98
2023-04-02T12:22:14.650Z,3.90
2023-04-02T12:23:14.661Z,4.09
2023-04-02T12:24:14.654Z,3.91
2023-04-02T12:25:14.638Z,4.01
2023-04-02T12:26:14.682Z,3.94
2023-04-02T12:27:14.640Z,3.80
2023-04-02T12:28:14.622Z,3.69
2023-04-02T12:29:14.626Z,3.60
2023-04-02T12:30:14.616Z,3.86
2023-04-02T12:31:14.639Z,4.03
2023-04-02T12:32:14.599Z,4.21
2023-04-02T12:33:14.637Z,4.27
2023-04-02T12:34:14.605Z,3.99
2023-04-02T12:35:14.571Z,3.89
2023-04-02T12:36:14.647Z,4.00
2023-04-02T12:37:14.569Z,4.26
2023-04-02T12:38:14.575Z,4.16
2023-04-02T12:39:14.559Z,4.02
2023-04-02T12:40:14.536Z,4.12
2023-04-02T12:41:14.543Z,4.10
2023-04-02T12:42:14.532Z,4.03
2023-04-02T12:43:14.511Z,3.59
2023-04-02T12:44:14.507Z,4.27
2023-04-02T12:45:14.577Z,4.09
2023-04-02T12:46:14.516Z,3.80
2023-04-02T12:47:14.501Z,3.27
2023-04-02T12:48:14.529Z,3.11
2023-04-02T12:49:14.486Z,4.00
2023-04-02T12:50:14.465Z,3.32
2023-04-02T12:51:14.788Z,3.09
2023-04-02T12:52:14.472Z,2.77
2023-04-02T12:53:14.446Z,2.46
2023-04-02T12:54:14.448Z,2.52
2023-04-02T12:55:14.444Z,2.50
2023-04-02T12:56:14.427Z,2.09
2023-04-02T12:57:14.464Z,2.23
2023-04-02T12:58:14.425Z,2.37
2023-04-02T12:59:14.403Z,2.56
2023-04-02T13:00:14.403Z,2.16
2023-04-02T13:01:14.434Z,2.19
2023-04-02T13:02:14.386Z,1.80
2023-04-02T13:03:14.486Z,1.69
2023-04-02T13:04:14.431Z,2.03
2023-04-02T13:05:14.392Z,1.97
2023-04-02T13:06:14.377Z,1.63
2023-04-02T13:07:14.382Z,1.45
2023-04-02T13:08:14.355Z,1.57
2023-04-02T13:09:14.346Z,1.69
2023-04-02T13:10:14.364Z,1.38
2023-04-02T13:11:14.336Z,1.41
2023-04-02T13:12:14.343Z,1.41
2023-04-02T13:13:14.332Z,1.15
2023-04-02T13:14:14.338Z,1.25
2023-04-02T13:15:14.314Z,1.07
2023-04-02T13:16:14.385Z,1.14
2023-04-02T13:17:14.347Z,0.97
2023-04-02T13:18:14.312Z,0.96
2023-04-02T13:19:14.285Z,1.06
2023-04-02T13:20:14.306Z,0.99